Time;durP1;ratioP1;P1;durP2;ratioP2;P2;SDS_P1;SDS_P2;PMS_P1;PMS_P2;Temp;Humidity;BMP_temperature;BMP_pressure;BME280_temperature;BME280_humidity;BME280_pressure;Samples;Min_cycle;Max_cycle;Signal;HPM_P1;HPM_P2
2022/02/03 00:08:58;;;;;;;16.7;21;;;;;;;1.6;81.2;98650;;;;
2022/02/03 00:29:51;;;;;;;16.7;21;;;;;;;1.5;82.3;98690;;;;
2022/02/03 00:50:46;;;;;;;18.5;24;;;;;;;1.4;82.9;98720;;;;
2022/02/03 01:01:39;;;;;;;14.2;15.8;;;;;;;1.4;83;98740;;;;
2022/02/03 01:11:44;;;;;;;14.2;15.8;;;;;;;1.3;83.4;98730;;;;
2022/02/03 01:33:23;;;;;;;14.2;15.8;;;;;;;1.1;84.3;98740;;;;
2022/02/03 01:43:44;;;;;;;14.8;17.1;;;;;;;0.8;85.2;98770;;;;
2022/02/03 01:53:39;;;;;;;14.8;17.1;;;;;;;0.8;85.5;98780;;;;
2022/02/03 02:03:39;;;;;;;10.4;13;;;;;;;0.8;85.7;98790;;;;
2022/02/03 02:15:16;;;;;;;10.4;13;;;;;;;0.8;85.2;98790;;;;
2022/02/03 02:45:39;;;;;;;11.8;14.3;;;;;;;0.8;84.9;98850;;;;
2022/02/03 02:56:49;;;;;;;11.8;14.3;;;;;;;0.8;84.9;98870;;;;
2022/02/03 03:29:23;;;;;;;15.1;17;;;;;;;0.7;83.5;98910;;;;
2022/02/03 03:39:45;;;;;;;13.1;15.7;;;;;;;0.6;82.5;98920;;;;
2022/02/03 03:49:44;;;;;;;13.1;15.7;;;;;;;0.5;82.6;98940;;;;
2022/02/03 04:00:16;;;;;;;10.7;13.5;;;;;;;0.5;82.4;98960;;;;
2022/02/03 04:31:12;;;;;;;8.1;9.9;;;;;;;0.4;81.7;98980;;;;
2022/02/03 04:42:04;;;;;;;8.1;9.9;;;;;;;0.3;81.4;99000;;;;
2022/02/03 05:02:45;;;;;;;9.1;10.5;;;;;;;0.3;81.5;99020;;;;
2022/02/03 05:12:48;;;;;;;9.1;10.5;;;;;;;0.2;81.2;99030;;;;
2022/02/03 05:23:21;;;;;;;9.1;10.5;;;;;;;0.1;80.3;99030;;;;
2022/02/03 05:33:00;;;;;;;9.5;14.1;;;;;;;0.2;80.3;99040;;;;
2022/02/03 05:44:00;;;;;;;9.5;14.1;;;;;;;0.2;79.7;99060;;;;
2022/02/03 06:04:54;;;;;;;7.2;9.7;;;;;;;0.2;80.7;99090;;;;
2022/02/03 06:14:52;;;;;;;7.2;9.7;;;;;;;0.3;80.7;99110;;;;
2022/02/03 06:35:39;;;;;;;9.7;12.2;;;;;;;0.1;76.5;99150;;;;
2022/02/03 06:45:46;;;;;;;9.7;12.2;;;;;;;0;76;99170;;;;
2022/02/03 06:56:48;;;;;;;9.7;12.2;;;;;;;0;76.1;99170;;;;
2022/02/03 07:06:39;;;;;;;4.6;7.3;;;;;;;0.2;77.5;99170;;;;
2022/02/03 07:17:40;;;;;;;4.6;7.3;;;;;;;0.4;77.8;99180;;;;
2022/02/03 07:28:39;;;;;;;10.8;13.4;;;;;;;0.6;77;99180;;;;
2022/02/03 07:39:40;;;;;;;10.8;13.4;;;;;;;0.6;75.8;99220;;;;
2022/02/03 07:49:39;;;;;;;10.8;13.4;;;;;;;0.7;75.3;99220;;;;
2022/02/03 07:59:40;;;;;;;12.1;15.6;;;;;;;0.8;75.6;99230;;;;
2022/02/03 08:09:47;;;;;;;12.1;15.6;;;;;;;1;75.1;99220;;;;
2022/02/03 08:19:46;;;;;;;12.1;15.6;;;;;;;1.2;74.3;99210;;;;
2022/02/03 08:30:46;;;;;;;12.6;17.4;;;;;;;1.4;72.6;99210;;;;
2022/02/03 08:41:39;;;;;;;12.6;17.4;;;;;;;1.7;72.4;99200;;;;
2022/02/03 08:51:44;;;;;;;12.6;17.4;;;;;;;1.6;71.5;99180;;;;
2022/02/03 09:54:17;;;;;;;7.8;11.9;;;;;;;3.2;69.3;99170;;;;
2022/02/03 10:03:48;;;;;;;9.2;13.9;;;;;;;2.9;70;99160;;;;
2022/02/03 10:13:39;;;;;;;9.2;13.9;;;;;;;3.2;68.5;99150;;;;
2022/02/03 10:23:40;;;;;;;9.2;13.9;;;;;;;3;68.6;99140;;;;
2022/02/03 10:34:40;;;;;;;;;;;;;;;;;;;;;
2022/02/03 10:45:58;;;;;;;;;;;;;;;;;;;;;
2022/02/03 10:57:06;;;;;;;;;;;;;;;3.9;67.7;99120;;;;
2022/02/03 11:06:51;;;;;;;10.4;27;;;;;;;3.9;68.3;99110;;;;
2022/02/03 11:17:40;;;;;;;;;;;;;;;4.1;68.3;99110;;;;
2022/02/03 11:28:01;;;;;;;10.4;13.4;;;;;;;4.2;67.6;99110;;;;
2022/02/03 11:39:07;;;;;;;10.4;13.4;;;;;;;4;68.4;99100;;;;
2022/02/03 11:50:01;;;;;;;11.9;14.8;;;;;;;4;68.2;99080;;;;
2022/02/03 12:01:01;;;;;;;11.9;14.8;;;;;;;4.3;68;99090;;;;
2022/02/03 12:11:01;;;;;;;11.9;14.8;;;;;;;4.5;67.5;99100;;;;
2022/02/03 12:21:45;;;;;;;12.6;16;;;;;;;4.6;67.1;99080;;;;
2022/02/03 12:31:56;;;;;;;12.6;16;;;;;;;4.6;66.2;99080;;;;
2022/02/03 12:41:43;;;;;;;12.6;16;;;;;;;4.5;65.8;99070;;;;
2022/02/03 12:52:40;;;;;;;8.1;13.2;;;;;;;4.9;65.4;99060;;;;
2022/02/03 13:02:40;;;;;;;8.1;13.2;;;;;;;4.5;65.2;99030;;;;
2022/02/03 13:13:52;;;;;;;8.1;13.2;;;;;;;4.3;65.1;99050;;;;
2022/02/03 13:25:01;;;;;;;7;11.4;;;;;;;4.4;64.3;99040;;;;
2022/02/03 13:34:47;;;;;;;7;11.4;;;;;;;4.7;64.4;99020;;;;
2022/02/03 13:45:40;;;;;;;7;11.4;;;;;;;4.9;64;99020;;;;
2022/02/03 14:27:40;;;;;;;6.7;11.4;;;;;;;4.6;62.1;98960;;;;
2022/02/03 14:37:46;;;;;;;6.7;11.4;;;;;;;4.2;62;98960;;;;
2022/02/03 14:48:42;;;;;;;7.6;11.5;;;;;;;4;62.5;98960;;;;
2022/02/03 14:58:40;;;;;;;7.6;11.5;;;;;;;3.7;63.7;98960;;;;
2022/02/03 15:08:55;;;;;;;7.6;11.5;;;;;;;3.5;64.2;98950;;;;
2022/02/03 15:18:40;;;;;;;9.8;14.5;;;;;;;3.2;65;98950;;;;
2022/02/03 15:29:40;;;;;;;9.8;14.5;;;;;;;2.9;66;98950;;;;
2022/02/03 15:39:46;;;;;;;9.8;14.5;;;;;;;2.5;66.9;98950;;;;
2022/02/03 15:50:11;;;;;;;10;15.3;;;;;;;2.3;67.6;98950;;;;
2022/02/03 16:01:12;;;;;;;10;15.3;;;;;;;2.1;68.1;98940;;;;
2022/02/03 16:21:45;;;;;;;19.6;23.8;;;;;;;1.8;69.1;98930;;;;
2022/02/03 16:51:53;;;;;;;18.1;21.8;;;;;;;1.6;70;98920;;;;
2022/02/03 17:02:40;;;;;;;18.1;21.8;;;;;;;1.7;69.9;98910;;;;
2022/02/03 17:13:40;;;;;;;18.1;21.8;;;;;;;1.6;69.8;98900;;;;
2022/02/03 17:23:40;;;;;;;13.7;20.8;;;;;;;1.6;70;98900;;;;
2022/02/03 18:08:20;;;;;;;14.1;17.8;;;;;;;1.6;69.8;98870;;;;
2022/02/03 18:45:50;;;;;;;12.8;17.3;;;;;;;1.6;69;98840;;;;
2022/02/03 18:49:07;;;;;;;13.4;18.7;;;;;;;1.7;68.6;98840;;;;
2022/02/03 18:58:46;;;;;;;13.4;18.7;;;;;;;1.8;68.4;98820;;;;
2022/02/03 19:10:13;;;;;;;13.4;18.7;;;;;;;1.9;68.2;98810;;;;
2022/02/03 20:01:58;;;;;;;12.6;19.3;;;;;;;2.1;67.3;98760;;;;
2022/02/03 20:12:40;;;;;;;12.6;19.3;;;;;;;2;68;98740;;;;
2022/02/03 20:22:40;;;;;;;12.1;13.9;;;;;;;2.1;67.7;98720;;;;
2022/02/03 20:33:40;;;;;;;12.1;13.9;;;;;;;2.2;66.6;98710;;;;
2022/02/03 20:43:40;;;;;;;12.1;13.9;;;;;;;2.3;65.9;98700;;;;
2022/02/03 20:53:40;;;;;;;14.1;16.9;;;;;;;2.2;66.5;98700;;;;
2022/02/03 21:03:43;;;;;;;14.1;16.9;;;;;;;2.2;66.5;98700;;;;
2022/02/03 21:14:40;;;;;;;14.1;16.9;;;;;;;2.1;66.8;98700;;;;
2022/02/03 21:24:40;;;;;;;19.4;21.8;;;;;;;2;67.3;98700;;;;
2022/02/03 21:34:40;;;;;;;19.4;21.8;;;;;;;2;67.4;98690;;;;
2022/02/03 21:45:40;;;;;;;19.4;21.8;;;;;;;1.9;67.6;98680;;;;
2022/02/03 21:55:40;;;;;;;14.4;19;;;;;;;1.9;67.9;98680;;;;
2022/02/03 22:06:40;;;;;;;14.4;19;;;;;;;1.9;68.8;98680;;;;
2022/02/03 22:16:40;;;;;;;15.5;22.5;;;;;;;2;68.3;98670;;;;
2022/02/03 22:27:02;;;;;;;15.5;22.5;;;;;;;2.2;67;98670;;;;
2022/02/03 22:38:57;;;;;;;15.5;22.5;;;;;;;2.3;66.6;98670;;;;
2022/02/03 22:47:57;;;;;;;13;16.8;;;;;;;2.4;67;98690;;;;
2022/02/03 22:59:13;;;;;;;13;16.8;;;;;;;2.4;67.2;98690;;;;
2022/02/03 23:09:49;;;;;;;13;16.8;;;;;;;2.5;66.8;98690;;;;
2022/02/03 23:20:45;;;;;;;13.9;20.4;;;;;;;2.6;66.9;98690;;;;
2022/02/03 23:31:46;;;;;;;13.9;20.4;;;;;;;2.7;67.3;98680;;;;
2022/02/03 23:43:23;;;;;;;13.9;20.4;;;;;;;2.8;67;98680;;;;
2022/02/03 23:52:04;;;;;;;13.8;21.3;;;;;;;2.9;67.4;98680;;;;
